Time;durP1;ratioP1;P1;durP2;ratioP2;P2;SDS_P1;SDS_P2;PMS_P1;PMS_P2;Temp;Humidity;BMP_temperature;BMP_pressure;BME280_temperature;BME280_humidity;BME280_pressure;Samples;Min_cycle;Max_cycle;Signal;HPM_P1;HPM_P2
2022/11/09 00:00:40;;;;;;;28.77;19.65;;;;;;;5.67;100.00;93681.75;5111438;28;20405;-74
2022/11/09 00:03:07;;;;;;;28.90;20.58;;;;;;;5.61;100.00;93673.03;5112350;28;20380;-74
2022/11/09 00:05:34;;;;;;;29.25;19.42;;;;;;;5.59;100.00;93685.94;5081132;28;20048;-74
2022/11/09 00:08:01;;;;;;;28.65;18.75;;;;;;;5.55;100.00;93681.34;5103156;28;20048;-74
2022/11/09 00:10:29;;;;;;;35.70;22.55;;;;;;;5.48;100.00;93674.34;5102692;28;20051;-74
2022/11/09 00:12:56;;;;;;;34.72;22.13;;;;;;;5.39;100.00;93667.72;5112068;28;20043;-74
2022/11/09 00:15:22;;;;;;;33.17;21.55;;;;;;;5.45;100.00;93684.06;5112026;27;20052;-74
2022/11/09 00:17:49;;;;;;;31.02;21.05;;;;;;;5.42;100.00;93672.47;5112307;28;20044;-75
2022/11/09 00:20:16;;;;;;;27.30;19.38;;;;;;;5.34;100.00;93675.06;5111845;28;20528;-74
2022/11/09 00:22:46;;;;;;;27.20;18.90;;;;;;;5.38;100.00;93683.97;5112271;28;20048;-75
2022/11/09 00:25:13;;;;;;;24.75;17.60;;;;;;;5.36;100.00;93683.31;5112215;28;20496;-75
2022/11/09 00:27:41;;;;;;;24.88;17.63;;;;;;;5.27;100.00;93686.88;5111757;28;20132;-74
2022/11/09 00:30:09;;;;;;;26.30;18.77;;;;;;;5.21;100.00;93681.47;5111520;28;20063;-75
2022/11/09 00:32:37;;;;;;;26.42;18.23;;;;;;;5.19;100.00;93680.06;5111771;28;20079;-75
2022/11/09 00:35:04;;;;;;;26.20;17.88;;;;;;;5.06;100.00;93676.25;5111530;28;20048;-74
2022/11/09 00:37:31;;;;;;;24.75;17.77;;;;;;;5.14;100.00;93684.84;5111698;28;20043;-75
2022/11/09 00:39:57;;;;;;;28.10;18.60;;;;;;;5.13;100.00;93681.50;5111663;28;20140;-75
2022/11/09 00:42:24;;;;;;;26.67;18.23;;;;;;;5.12;100.00;93692.63;5111478;28;20096;-74
2022/11/09 00:44:52;;;;;;;25.95;18.20;;;;;;;4.99;100.00;93674.53;5111044;28;20050;-75
2022/11/09 00:47:19;;;;;;;33.05;23.05;;;;;;;5.03;100.00;93686.78;5111007;28;20055;-74
2022/11/09 00:49:46;;;;;;;28.90;21.00;;;;;;;5.00;100.00;93687.09;5111229;28;20097;-74
2022/11/09 00:52:12;;;;;;;28.35;20.95;;;;;;;4.98;100.00;93685.66;5111415;28;20043;-74
2022/11/09 00:54:39;;;;;;;29.20;20.40;;;;;;;4.96;100.00;93683.31;5088431;28;20098;-74
2022/11/09 00:57:06;;;;;;;28.75;19.48;;;;;;;4.81;100.00;93670.44;5105736;28;20116;-74
2022/11/09 00:59:32;;;;;;;30.75;20.75;;;;;;;4.89;100.00;93687.44;5111126;28;20051;-74
2022/11/09 01:02:01;;;;;;;30.58;20.85;;;;;;;4.88;100.00;93676.47;5110911;28;20051;-74
2022/11/09 01:04:27;;;;;;;30.45;21.13;;;;;;;4.81;100.00;93670.44;5110911;28;20093;-74
2022/11/09 01:06:54;;;;;;;29.90;21.27;;;;;;;4.71;100.00;93668.06;5111191;28;20043;-75
2022/11/09 01:09:21;;;;;;;28.05;20.17;;;;;;;4.75;100.00;93666.78;5111320;28;20552;-74
2022/11/09 01:11:47;;;;;;;30.52;19.85;;;;;;;4.78;100.00;93666.47;5110628;28;20047;-73
2022/11/09 01:14:14;;;;;;;29.52;20.65;;;;;;;4.79;100.00;93670.63;5110675;28;20504;-74
2022/11/09 01:16:41;;;;;;;29.70;20.35;;;;;;;4.82;100.00;93672.03;5111180;28;20055;-73
2022/11/09 01:19:09;;;;;;;28.67;20.15;;;;;;;4.82;100.00;93665.19;5110786;28;20060;-73
2022/11/09 01:21:36;;;;;;;27.13;19.70;;;;;;;4.84;100.00;93669.31;5110766;28;20052;-73
2022/11/09 01:24:02;;;;;;;29.67;20.48;;;;;;;4.82;100.00;93672.03;5110792;27;20047;-73
2022/11/09 01:26:30;;;;;;;26.58;18.15;;;;;;;4.78;100.00;93658.81;5110725;28;20059;-74
2022/11/09 01:28:57;;;;;;;28.10;18.63;;;;;;;4.80;100.00;93669.66;5110487;28;20039;-74
2022/11/09 01:31:24;;;;;;;25.30;17.88;;;;;;;4.77;100.00;93662.31;5109849;28;20043;-74
2022/11/09 01:33:52;;;;;;;29.38;19.33;;;;;;;4.76;100.00;93672.66;5077635;28;20157;-75
2022/11/09 01:36:24;;;;;;;29.42;20.30;;;;;;;4.73;100.00;93671.25;5069298;28;20044;-75
2022/11/09 01:38:52;;;;;;;29.65;19.10;;;;;;;4.71;100.00;93673.16;5069696;28;20432;-74
2022/11/09 01:41:21;;;;;;;31.92;19.77;;;;;;;4.64;100.00;93665.38;5069685;28;20060;-75
2022/11/09 01:44:07;;;;;;;30.73;20.52;;;;;;;4.66;100.00;93662.66;5069411;28;20048;-75
2022/11/09 01:46:38;;;;;;;28.98;20.30;;;;;;;4.66;100.00;93658.38;5087455;28;20048;-74
2022/11/09 01:49:11;;;;;;;32.20;21.50;;;;;;;4.65;100.00;93666.97;5089800;28;20093;-75
2022/11/09 01:51:43;;;;;;;32.33;21.83;;;;;;;4.59;100.00;93659.19;5089450;28;20489;-74
2022/11/09 01:54:14;;;;;;;28.85;20.25;;;;;;;4.55;100.00;93662.03;5089295;28;20077;-74
2022/11/09 01:56:41;;;;;;;32.00;21.92;;;;;;;4.50;100.00;93664.28;5089263;28;20535;-74
2022/11/09 01:59:11;;;;;;;32.17;22.38;;;;;;;4.37;100.00;93646.97;5088894;28;20048;-75
2022/11/09 02:01:40;;;;;;;28.30;20.52;;;;;;;4.45;100.00;93658.91;5089737;28;20051;-74
2022/11/09 02:04:10;;;;;;;31.77;22.00;;;;;;;4.36;100.00;93649.69;5089373;28;20114;-74
2022/11/09 02:06:38;;;;;;;32.88;22.10;;;;;;;4.41;100.00;93655.06;5089542;28;20044;-74
2022/11/09 02:09:16;;;;;;;28.98;20.10;;;;;;;4.49;100.00;93667.00;5078211;28;20056;-74
2022/11/09 02:11:43;;;;;;;30.50;20.52;;;;;;;4.49;100.00;93665.22;5068960;28;20047;-74
2022/11/09 02:14:10;;;;;;;32.35;20.65;;;;;;;4.51;100.00;93668.44;5069219;28;20087;-74
2022/11/09 02:16:37;;;;;;;30.20;19.75;;;;;;;4.35;100.00;93648.09;5069382;28;20121;-74
2022/11/09 02:19:04;;;;;;;31.42;21.55;;;;;;;4.46;100.00;93669.84;5069216;28;20052;-74
2022/11/09 02:21:33;;;;;;;33.85;21.25;;;;;;;4.37;100.00;93669.88;5068752;28;20563;-74
2022/11/09 02:24:00;;;;;;;32.97;20.73;;;;;;;4.40;100.00;93677.16;5068301;28;20044;-75
2022/11/09 02:26:32;;;;;;;33.85;21.17;;;;;;;4.35;100.00;93676.06;5068645;28;20045;-74
2022/11/09 02:29:00;;;;;;;34.25;21.08;;;;;;;4.26;100.00;93677.81;5069098;28;20082;-75
2022/11/09 02:31:33;;;;;;;30.50;20.15;;;;;;;4.21;100.00;93678.28;5068578;28;20490;-75
2022/11/09 02:34:04;;;;;;;32.25;20.58;;;;;;;4.10;100.00;93670.97;5069103;28;20044;-75
2022/11/09 02:36:32;;;;;;;33.53;21.08;;;;;;;4.14;100.00;93674.78;5086417;28;20093;-74
2022/11/09 02:38:59;;;;;;;31.63;20.83;;;;;;;4.10;100.00;93673.50;5089264;28;20044;-74
2022/11/09 02:41:27;;;;;;;33.67;20.92;;;;;;;3.88;100.00;93642.66;5089216;28;20047;-75
2022/11/09 02:43:55;;;;;;;33.25;20.45;;;;;;;4.07;100.00;93669.53;5088946;28;20097;-74
2022/11/09 02:46:24;;;;;;;32.25;21.00;;;;;;;4.11;100.00;93670.81;5089120;28;20094;-74
2022/11/09 02:48:51;;;;;;;32.70;21.45;;;;;;;4.07;100.00;93674.63;5089251;28;20127;-74
2022/11/09 02:51:18;;;;;;;30.83;21.17;;;;;;;4.07;100.00;93676.38;5089023;28;20047;-74
2022/11/09 02:53:46;;;;;;;32.22;22.00;;;;;;;4.06;100.00;93679.84;5088635;28;20047;-74
2022/11/09 02:56:13;;;;;;;31.00;22.27;;;;;;;4.07;100.00;93684.78;5088737;28;20055;-74
2022/11/09 02:58:40;;;;;;;35.30;21.60;;;;;;;3.88;100.00;93661.25;5070156;28;20056;-74
2022/11/09 03:01:07;;;;;;;33.78;22.98;;;;;;;3.97;100.00;93667.16;5068733;28;20049;-74
2022/11/09 03:03:34;;;;;;;36.05;23.80;;;;;;;3.91;100.00;93656.81;5068604;28;20185;-74
2022/11/09 03:06:01;;;;;;;33.65;22.63;;;;;;;4.04;100.00;93682.56;5068789;28;20075;-74
2022/11/09 03:08:27;;;;;;;33.67;22.55;;;;;;;4.09;100.00;93684.63;5068598;28;20056;-74
2022/11/09 03:10:55;;;;;;;36.83;23.70;;;;;;;4.07;100.00;93689.09;5068798;28;20045;-74
2022/11/09 03:13:22;;;;;;;32.88;22.75;;;;;;;4.08;100.00;93685.59;5068591;28;20045;-74
2022/11/09 03:15:49;;;;;;;31.42;21.95;;;;;;;4.06;100.00;93688.28;5068554;28;20121;-74
2022/11/09 03:18:16;;;;;;;33.67;22.02;;;;;;;4.08;100.00;93685.59;5068793;28;20049;-74
2022/11/09 03:20:42;;;;;;;36.50;23.60;;;;;;;4.04;100.00;93690.19;5068691;28;20110;-74
2022/11/09 03:23:10;;;;;;;36.90;23.45;;;;;;;3.98;100.00;93685.75;5068473;28;20045;-75
2022/11/09 03:25:37;;;;;;;42.40;24.73;;;;;;;4.02;100.00;93687.00;5068326;28;20132;-75
2022/11/09 03:28:07;;;;;;;44.45;25.45;;;;;;;3.98;100.00;93676.34;5068330;28;20045;-74
2022/11/09 03:30:34;;;;;;;43.47;25.42;;;;;;;4.07;100.00;93691.63;5086193;28;20101;-75
2022/11/09 03:33:03;;;;;;;42.80;25.38;;;;;;;4.03;100.00;93687.81;5088362;28;20549;-75
2022/11/09 03:35:30;;;;;;;41.58;26.25;;;;;;;4.01;100.00;93695.59;5091151;28;20094;-74
2022/11/09 03:37:56;;;;;;;40.85;24.70;;;;;;;3.99;100.00;93692.41;5092389;28;20409;-74
2022/11/09 03:40:23;;;;;;;39.53;25.13;;;;;;;4.00;100.00;93689.72;5089311;28;20097;-74
2022/11/09 03:42:50;;;;;;;40.95;25.65;;;;;;;4.01;100.00;93698.13;5071814;28;20040;-74
2022/11/09 03:45:18;;;;;;;36.60;23.85;;;;;;;3.99;100.00;93687.31;5071623;28;20090;-74
2022/11/09 03:47:46;;;;;;;36.72;23.55;;;;;;;3.98;100.00;93693.38;5071646;28;20052;-74
2022/11/09 03:50:14;;;;;;;35.38;23.27;;;;;;;3.95;100.00;93686.84;5071648;28;20048;-74
2022/11/09 03:52:44;;;;;;;37.75;23.33;;;;;;;3.96;100.00;93670.66;5071744;28;20040;-74
2022/11/09 03:55:11;;;;;;;37.97;23.45;;;;;;;4.13;100.00;93693.53;5085982;28;20113;-74
2022/11/09 03:57:37;;;;;;;39.67;24.17;;;;;;;4.15;100.00;93689.09;5092063;28;20048;-74
2022/11/09 04:00:06;;;;;;;41.95;25.00;;;;;;;4.22;100.00;93687.50;5091708;28;20056;-72
2022/11/09 04:02:34;;;;;;;38.35;23.92;;;;;;;4.27;100.00;93690.34;5091809;28;20106;-71
2022/11/09 04:05:01;;;;;;;36.85;23.58;;;;;;;4.32;100.00;93692.44;5092162;28;20052;-74
2022/11/09 04:07:27;;;;;;;39.33;24.00;;;;;;;4.37;100.00;93699.59;5091668;28;20487;-74
2022/11/09 04:09:54;;;;;;;44.47;24.90;;;;;;;4.42;100.00;93705.00;5091736;28;20052;-75
2022/11/09 04:12:21;;;;;;;44.65;25.02;;;;;;;4.48;100.00;93703.53;5091501;28;20056;-73
2022/11/09 04:14:48;;;;;;;43.53;25.83;;;;;;;4.41;100.00;93695.78;5091415;28;20052;-75
2022/11/09 04:17:15;;;;;;;46.85;26.98;;;;;;;4.41;100.00;93686.38;5091581;28;20131;-73
2022/11/09 04:19:43;;;;;;;45.45;26.23;;;;;;;4.51;100.00;93704.03;5091270;28;20558;-73
2022/11/09 04:22:10;;;;;;;47.97;26.85;;;;;;;4.51;100.00;93706.59;5091253;28;20109;-73
2022/11/09 04:24:36;;;;;;;43.78;26.65;;;;;;;4.44;100.00;93699.75;5091497;28;20180;-73
2022/11/09 04:27:03;;;;;;;49.42;28.52;;;;;;;4.53;100.00;93702.13;5091197;28;20044;-73
2022/11/09 04:29:30;;;;;;;47.58;29.05;;;;;;;4.54;100.00;93700.38;5090876;28;20070;-73
2022/11/09 04:31:57;;;;;;;48.60;29.05;;;;;;;4.61;100.00;93703.06;5091179;28;20048;-73
2022/11/09 04:34:24;;;;;;;52.30;29.63;;;;;;;4.62;100.00;93707.19;5090922;28;20109;-73
2022/11/09 04:36:52;;;;;;;52.60;30.05;;;;;;;4.65;100.00;93701.78;5091064;28;20081;-73
2022/11/09 04:39:18;;;;;;;55.28;32.55;;;;;;;4.58;100.00;93695.78;5090875;28;20056;-73
2022/11/09 04:41:45;;;;;;;51.33;28.77;;;;;;;4.66;100.00;93704.19;5091010;28;20117;-73
2022/11/09 04:44:12;;;;;;;48.65;28.38;;;;;;;4.67;100.00;93700.69;5090719;28;20504;-73
2022/11/09 04:46:39;;;;;;;47.08;30.70;;;;;;;4.73;100.00;93709.44;5089971;28;20492;-73
2022/11/09 04:49:05;;;;;;;42.42;26.48;;;;;;;4.79;100.00;93705.44;5090607;28;20133;-72
2022/11/09 04:51:32;;;;;;;47.70;27.35;;;;;;;4.80;100.00;93707.81;5090894;28;20048;-73
2022/11/09 04:54:00;;;;;;;52.97;29.20;;;;;;;4.86;100.00;93708.91;5090396;28;20096;-73
2022/11/09 04:56:27;;;;;;;52.72;29.88;;;;;;;4.92;100.00;93705.72;5090259;28;20392;-73
2022/11/09 04:58:54;;;;;;;52.45;30.27;;;;;;;4.99;100.00;93712.75;5090794;28;20052;-73
2022/11/09 05:01:20;;;;;;;47.42;29.52;;;;;;;4.91;100.00;93693.19;5090705;28;20488;-74
2022/11/09 05:03:47;;;;;;;51.28;29.42;;;;;;;5.05;100.00;93712.88;5090458;28;20040;-73
2022/11/09 05:06:32;;;;;;;43.17;26.65;;;;;;;5.06;100.00;93709.34;5090313;28;20093;-73
2022/11/09 05:09:01;;;;;;;46.03;26.90;;;;;;;5.07;100.00;93716.06;5090529;28;20055;-73
2022/11/09 05:11:28;;;;;;;41.25;24.30;;;;;;;5.10;100.00;93720.03;5090269;28;20116;-74
2022/11/09 05:13:55;;;;;;;40.40;25.40;;;;;;;5.14;100.00;93720.50;5090072;28;20047;-74
2022/11/09 05:16:22;;;;;;;61.58;34.72;;;;;;;5.15;100.00;93715.25;5090413;28;20455;-74
2022/11/09 05:18:49;;;;;;;88.28;44.85;;;;;;;5.18;100.00;93722.53;5090148;28;20044;-73
2022/11/09 05:21:17;;;;;;;117.20;53.92;;;;;;;5.18;100.00;93721.75;5090053;28;20507;-74
2022/11/09 05:23:58;;;;;;;135.88;64.75;;;;;;;5.17;100.00;93718.41;5090028;28;20044;-73
2022/11/09 05:26:29;;;;;;;156.82;76.78;;;;;;;5.17;100.00;93717.59;5089930;28;20066;-74
2022/11/09 05:28:56;;;;;;;123.80;65.15;;;;;;;5.25;100.00;93739.72;5090320;28;20081;-74
2022/11/09 05:31:23;;;;;;;114.35;61.17;;;;;;;5.14;100.00;93721.28;5090132;28;20051;-74
2022/11/09 05:33:53;;;;;;;97.38;52.88;;;;;;;5.23;100.00;93744.97;5089924;28;20444;-74
2022/11/09 05:36:21;;;;;;;67.32;39.83;;;;;;;5.24;100.00;93738.94;5089756;28;20044;-74
2022/11/09 05:38:49;;;;;;;60.03;34.88;;;;;;;5.24;100.00;93744.03;5089773;28;20443;-74
2022/11/09 05:41:16;;;;;;;50.97;30.20;;;;;;;5.25;100.00;93742.25;5085941;28;20043;-74
2022/11/09 05:43:45;;;;;;;48.03;28.88;;;;;;;5.25;100.00;93742.25;5088288;28;20044;-74
2022/11/09 05:46:12;;;;;;;52.72;29.83;;;;;;;5.12;100.00;93730.03;5089072;28;20094;-74
2022/11/09 05:48:39;;;;;;;49.03;28.85;;;;;;;5.29;100.00;93748.63;5089550;28;20136;-74
2022/11/09 05:51:07;;;;;;;49.38;29.85;;;;;;;5.30;100.00;93738.28;5089453;28;20105;-74
2022/11/09 05:53:34;;;;;;;51.35;30.98;;;;;;;5.31;100.00;93742.41;5089617;28;20044;-74
2022/11/09 05:56:03;;;;;;;53.38;33.22;;;;;;;5.33;100.00;93739.72;5089401;28;20056;-74
2022/11/09 05:58:30;;;;;;;59.33;33.03;;;;;;;5.37;100.00;93750.38;5089966;28;20075;-74
2022/11/09 06:00:58;;;;;;;58.83;35.63;;;;;;;5.38;100.00;93752.75;5105091;28;20055;-74
2022/11/09 06:03:25;;;;;;;56.10;33.88;;;;;;;5.43;100.00;93749.69;5110349;28;20043;-74
2022/11/09 06:05:52;;;;;;;64.00;35.75;;;;;;;5.49;100.00;93746.50;5096125;28;20047;-74
2022/11/09 06:08:18;;;;;;;58.45;33.47;;;;;;;5.53;100.00;93752.84;5110239;28;20055;-74
2022/11/09 06:10:45;;;;;;;61.00;34.42;;;;;;;5.56;100.00;93749.97;5109988;28;20566;-74
2022/11/09 06:13:12;;;;;;;51.75;31.50;;;;;;;5.64;100.00;93758.56;5109686;27;20043;-73
2022/11/09 06:15:38;;;;;;;57.03;31.15;;;;;;;5.72;100.00;93755.97;5110249;28;20101;-73
2022/11/09 06:18:07;;;;;;;33.97;22.75;;;;;;;5.70;100.00;93760.44;5110182;28;20048;-73
2022/11/09 06:20:33;;;;;;;33.88;23.42;;;;;;;5.51;100.00;93761.63;5110188;28;20052;-73
2022/11/09 06:23:01;;;;;;;29.55;20.48;;;;;;;5.54;100.00;93759.53;5110079;28;20044;-73
2022/11/09 06:25:28;;;;;;;42.13;29.17;;;;;;;5.45;100.00;93757.97;5109955;28;20095;-73
2022/11/09 06:27:56;;;;;;;37.80;28.52;;;;;;;5.46;100.00;93764.69;5109808;28;20459;-73
2022/11/09 06:30:23;;;;;;;28.35;20.73;;;;;;;5.45;100.00;93765.59;5109491;28;20047;-74
2022/11/09 06:32:50;;;;;;;31.80;21.75;;;;;;;5.35;100.00;93745.44;5109338;28;20104;-73
2022/11/09 06:35:18;;;;;;;37.58;24.38;;;;;;;5.50;100.00;93758.28;5109995;28;20089;-74
2022/11/09 06:37:45;;;;;;;44.92;27.15;;;;;;;5.55;100.00;93763.66;5110018;28;20105;-74
2022/11/09 06:40:13;;;;;;;31.27;21.10;;;;;;;5.43;100.00;93758.16;5109806;28;20091;-74
2022/11/09 06:42:40;;;;;;;35.55;23.00;;;;;;;5.53;100.00;93767.34;5110154;28;20446;-74
2022/11/09 06:45:08;;;;;;;36.35;23.23;;;;;;;5.43;100.00;93770.91;5109719;28;20052;-74
2022/11/09 06:47:35;;;;;;;41.30;24.88;;;;;;;5.32;100.00;93769.47;5109842;28;20100;-74
2022/11/09 06:50:02;;;;;;;42.58;26.67;;;;;;;5.43;100.00;93770.09;5109537;28;20051;-74
2022/11/09 06:52:30;;;;;;;43.72;28.17;;;;;;;5.44;100.00;93766.56;5109168;28;20040;-74
2022/11/09 06:54:57;;;;;;;51.50;31.00;;;;;;;5.54;100.00;93764.63;5081807;28;20497;-74
2022/11/09 06:57:23;;;;;;;55.85;32.88;;;;;;;5.51;100.00;93759.84;5109145;28;20051;-75
2022/11/09 06:59:50;;;;;;;49.08;30.05;;;;;;;5.53;100.00;93762.25;5109421;28;20051;-74
2022/11/09 07:02:17;;;;;;;43.90;26.67;;;;;;;5.30;100.00;93766.31;5109682;28;20063;-74
2022/11/09 07:04:44;;;;;;;52.83;30.75;;;;;;;5.45;100.00;93768.16;5109813;28;20134;-74
2022/11/09 07:07:11;;;;;;;48.65;28.30;;;;;;;5.52;100.00;93765.75;5109047;28;20060;-74
2022/11/09 07:09:39;;;;;;;51.05;27.90;;;;;;;5.66;100.00;93767.63;5111024;28;20047;-75
2022/11/09 07:12:06;;;;;;;50.05;29.85;;;;;;;5.83;100.00;93757.38;5113315;28;20048;-75
2022/11/09 07:14:33;;;;;;;52.50;30.92;;;;;;;6.07;100.00;93761.56;5113569;27;20044;-75
2022/11/09 07:16:59;;;;;;;52.55;28.80;;;;;;;6.32;100.00;93758.88;5113544;28;20085;-75
2022/11/09 07:19:26;;;;;;;47.83;28.05;;;;;;;6.54;100.00;93766.72;5113505;28;20051;-75
2022/11/09 07:21:53;;;;;;;45.78;29.95;;;;;;;6.71;100.00;93767.38;5113527;28;20048;-75
2022/11/09 07:24:20;;;;;;;40.65;26.88;;;;;;;6.85;100.00;93765.81;5113432;27;20047;-74
2022/11/09 07:26:49;;;;;;;48.80;29.63;;;;;;;6.92;100.00;93751.41;5113085;28;20473;-74
2022/11/09 07:29:16;;;;;;;39.20;28.95;;;;;;;7.06;100.00;93770.28;5084433;28;20513;-74
2022/11/09 07:31:43;;;;;;;41.45;28.00;;;;;;;7.29;100.00;93772.00;5113049;28;20346;-74
2022/11/09 07:34:09;;;;;;;47.40;29.60;;;;;;;7.47;100.00;93770.84;5112860;28;20104;-74
2022/11/09 07:36:36;;;;;;;46.70;30.75;;;;;;;7.48;100.00;93772.44;5113112;28;20055;-75
2022/11/09 07:39:03;;;;;;;45.78;27.95;;;;;;;7.62;100.00;93774.19;5113194;28;20044;-74
2022/11/09 07:41:30;;;;;;;43.60;27.65;;;;;;;7.79;100.00;93771.47;5112969;28;20096;-75
2022/11/09 07:43:59;;;;;;;41.03;25.67;;;;;;;7.84;100.00;93771.72;5113138;27;20484;-75
2022/11/09 07:46:25;;;;;;;47.60;26.63;;;;;;;8.00;100.00;93782.69;5112545;28;20100;-75
2022/11/09 07:48:52;;;;;;;53.17;29.70;;;;;;;8.09;100.00;93775.72;5112658;28;20047;-75
2022/11/09 07:51:19;;;;;;;48.42;28.85;;;;;;;8.15;100.00;93775.78;5112627;28;20489;-75
2022/11/09 07:53:46;;;;;;;56.38;30.15;;;;;;;8.24;100.00;93775.69;5104507;28;20486;-75
2022/11/09 07:56:13;;;;;;;55.45;32.20;;;;;;;8.37;100.00;93783.50;5092362;28;20513;-75
2022/11/09 07:58:40;;;;;;;58.78;31.95;;;;;;;8.50;100.00;93779.47;5112831;28;20286;-75
2022/11/09 08:01:09;;;;;;;60.75;31.67;;;;;;;8.55;100.00;93782.31;5078604;28;20683;-75
2022/11/09 08:03:36;;;;;;;59.30;33.05;;;;;;;8.60;100.00;93777.44;5110692;28;20455;-75
2022/11/09 08:06:03;;;;;;;55.72;32.20;;;;;;;8.69;100.00;93776.34;5112093;28;20096;-76
2022/11/09 08:08:30;;;;;;;59.45;33.45;;;;;;;8.84;100.00;93783.16;5112347;28;20051;-75
2022/11/09 08:10:57;;;;;;;66.25;36.40;;;;;;;9.00;100.00;93779.56;5112385;28;20055;-75
2022/11/09 08:13:24;;;;;;;65.28;36.47;;;;;;;9.06;100.00;93785.69;5112337;28;20051;-75
2022/11/09 08:15:51;;;;;;;65.63;38.00;;;;;;;8.95;100.00;93785.22;5112291;28;20382;-75
2022/11/09 08:18:21;;;;;;;69.53;38.28;;;;;;;9.17;100.00;93780.06;5112108;28;20058;-75
2022/11/09 08:20:49;;;;;;;74.40;40.10;;;;;;;9.27;100.00;93766.94;5110939;28;20513;-75
2022/11/09 08:23:19;;;;;;;70.80;39.13;;;;;;;9.45;100.00;93776.69;5108062;28;20105;-75
2022/11/09 08:25:47;;;;;;;69.70;38.40;;;;;;;9.64;100.00;93774.44;5102893;28;20569;-75
2022/11/09 08:31:01;;;;;;;70.87;38.17;;;;;;;9.49;100.00;93774.53;5111904;28;20062;-74
2022/11/09 08:33:30;;;;;;;68.65;36.00;;;;;;;9.59;100.00;93774.22;5111669;27;20438;-75
2022/11/09 08:35:57;;;;;;;78.47;36.35;;;;;;;9.55;100.00;93776.38;5111885;27;20047;-75
2022/11/09 08:38:24;;;;;;;65.40;36.38;;;;;;;9.67;100.00;93786.88;5111749;28;20047;-75
2022/11/09 08:40:56;;;;;;;84.07;35.60;;;;;;;9.90;100.00;93765.28;5111349;28;20051;-75
2022/11/09 08:43:22;;;;;;;74.75;35.05;;;;;;;9.99;100.00;93781.31;5111754;28;20044;-75
2022/11/09 08:45:49;;;;;;;72.60;33.00;;;;;;;9.64;100.00;93789.84;5103330;28;20413;-75
2022/11/09 08:48:16;;;;;;;63.85;33.78;;;;;;;9.65;100.00;93764.97;5093942;28;20055;-75
2022/11/09 08:50:44;;;;;;;69.65;35.75;;;;;;;9.68;100.00;93774.88;5093434;28;20040;-75
2022/11/09 08:53:11;;;;;;;71.57;35.78;;;;;;;9.86;100.00;93771.78;5093392;28;20040;-75
2022/11/09 08:55:37;;;;;;;72.07;35.65;;;;;;;10.07;100.00;93777.78;5093279;28;20060;-74
2022/11/09 08:58:05;;;;;;;67.07;34.35;;;;;;;10.36;100.00;93779.25;5093369;28;20509;-75
2022/11/09 09:00:31;;;;;;;63.63;32.83;;;;;;;10.22;100.00;93754.53;5093362;28;20052;-74
2022/11/09 09:02:58;;;;;;;75.03;36.03;;;;;;;10.37;100.00;93778.25;5093501;28;20044;-74
2022/11/09 09:05:25;;;;;;;67.80;32.83;;;;;;;10.42;100.00;93782.84;5093584;28;20052;-75
2022/11/09 09:07:53;;;;;;;57.78;30.98;;;;;;;10.51;100.00;93786.03;5093175;28;20051;-76
2022/11/09 09:10:20;;;;;;;43.00;23.83;;;;;;;10.51;100.00;93783.47;5093356;28;20101;-75
2022/11/09 09:12:46;;;;;;;56.88;31.00;;;;;;;10.35;100.00;93774.31;5093457;28;20394;-75
2022/11/09 09:15:13;;;;;;;60.30;31.20;;;;;;;10.46;100.00;93775.56;5093375;28;20044;-75
2022/11/09 09:17:40;;;;;;;46.47;28.70;;;;;;;10.75;100.00;93778.75;5093108;28;20489;-75
2022/11/09 09:20:07;;;;;;;43.17;24.58;;;;;;;11.00;100.00;93773.03;5093062;28;20466;-75
2022/11/09 09:22:34;;;;;;;48.30;26.30;;;;;;;11.15;100.00;93768.47;5093020;28;20495;-75
2022/11/09 09:25:03;;;;;;;49.00;27.33;;;;;;;11.21;100.00;93783.13;5092905;28;20093;-75
2022/11/09 09:27:30;;;;;;;48.90;26.67;;;;;;;11.47;100.00;93783.28;5092839;28;20044;-75
2022/11/09 09:29:57;;;;;;;46.05;27.23;;;;;;;11.63;100.00;93788.00;5092806;28;20497;-75
2022/11/09 09:32:24;;;;;;;46.58;26.92;;;;;;;11.58;100.00;93790.38;5092509;28;20052;-75
2022/11/09 09:34:50;;;;;;;51.05;28.25;;;;;;;11.86;100.00;93788.56;5092913;28;20093;-75
2022/11/09 09:37:18;;;;;;;49.22;27.50;;;;;;;11.61;100.00;93792.56;5092861;28;20063;-75
2022/11/09 09:39:45;;;;;;;57.88;28.77;;;;;;;11.99;100.00;93785.16;5092984;28;20056;-75
2022/11/09 09:42:16;;;;;;;60.40;29.38;;;;;;;11.97;100.00;93789.69;5092941;28;20047;-75
2022/11/09 09:44:47;;;;;;;53.92;30.23;;;;;;;12.05;100.00;93780.97;5092925;28;20044;-74
2022/11/09 09:47:19;;;;;;;59.13;30.38;;;;;;;12.01;100.00;93772.84;5101153;28;20126;-75
2022/11/09 09:49:52;;;;;;;54.83;27.58;;;;;;;12.05;100.00;93773.25;5081912;28;20052;-75
2022/11/09 09:52:23;;;;;;;58.90;28.38;;;;;;;12.15;100.00;93760.72;5110211;28;20063;-75
2022/11/09 09:54:57;;;;;;;49.90;26.50;;;;;;;12.19;100.00;93766.25;5084063;28;20048;-75
2022/11/09 09:57:29;;;;;;;56.35;27.95;;;;;;;12.25;100.00;93755.13;5110262;28;20693;-75
2022/11/09 09:59:59;;;;;;;48.47;26.92;;;;;;;12.38;100.00;93755.06;5110161;28;20043;-75
2022/11/09 10:02:29;;;;;;;46.22;23.73;;;;;;;12.27;100.00;93766.03;5110310;28;20112;-75
2022/11/09 10:04:59;;;;;;;49.28;25.98;;;;;;;11.94;100.00;93741.97;5109633;28;20101;-75
2022/11/09 10:07:30;;;;;;;49.58;26.98;;;;;;;11.49;100.00;93694.63;5110003;28;21085;-74
2022/11/09 10:10:35;;;;;;;45.35;24.67;;;;;;;11.89;100.00;93747.75;5110210;28;20051;-74
2022/11/09 10:13:15;;;;;;;;;;;;;;;12.03;100.00;93745.09;5069160;28;20462;-74
2022/11/09 10:15:47;;;;;;;46.38;24.70;;;;;;;12.31;100.00;93744.00;5110488;28;19930;-75
2022/11/09 10:18:27;;;;;;;47.60;26.33;;;;;;;12.45;100.00;93743.94;5109936;28;20047;-75
2022/11/09 10:21:09;;;;;;;48.88;27.67;;;;;;;12.60;100.00;93734.13;5110060;28;20043;-75
2022/11/09 10:23:43;;;;;;;49.75;26.55;;;;;;;12.87;100.00;93738.31;5110147;28;20051;-74
2022/11/09 10:26:18;;;;;;;47.97;27.20;;;;;;;13.06;100.00;93744.31;5109621;28;20055;-74
2022/11/09 10:28:51;;;;;;;46.08;26.35;;;;;;;13.27;100.00;93734.56;5110094;28;20058;-75
2022/11/09 10:31:20;;;;;;;42.88;22.92;;;;;;;13.42;100.00;93723.94;5109882;28;20101;-76
2022/11/09 10:33:53;;;;;;;54.50;27.55;;;;;;;13.41;100.00;93730.06;5109278;28;20059;-76
2022/11/09 10:36:24;;;;;;;51.38;27.00;;;;;;;13.11;100.00;93728.97;5109644;28;20044;-75
2022/11/09 10:38:56;;;;;;;52.40;28.42;;;;;;;12.75;100.00;93715.78;5106272;28;20051;-75
2022/11/09 10:41:29;;;;;;;47.10;26.48;;;;;;;13.10;100.00;93719.66;5088808;28;20489;-76
2022/11/09 10:43:57;;;;;;;50.00;27.73;;;;;;;13.06;100.00;93718.50;5090963;28;20055;-75
2022/11/09 10:46:24;;;;;;;50.50;27.48;;;;;;;12.82;100.00;93706.19;5113666;28;20040;-75
2022/11/09 10:48:52;;;;;;;51.47;26.60;;;;;;;12.81;100.00;93708.97;5098608;28;20044;-75
2022/11/09 10:51:33;;;;;;;39.13;23.10;;;;;;;12.82;100.00;93697.66;5093377;28;20140;-75
2022/11/09 10:54:16;;;;;;;49.85;27.23;;;;;;;13.09;100.00;93687.13;5074257;28;20045;-75
2022/11/09 10:56:47;;;;;;;52.10;27.27;;;;;;;13.44;100.00;93707.22;5101765;28;20136;-75
2022/11/09 10:59:43;;;;;;;45.22;24.05;;;;;;;13.46;100.00;93707.00;5113943;28;20077;-75
2022/11/09 11:02:45;;;;;;;43.88;23.90;;;;;;;13.66;100.00;93698.28;5113702;28;20101;-75
2022/11/09 11:05:27;;;;;;;52.10;26.00;;;;;;;13.78;100.00;93699.13;5113325;28;20048;-75
2022/11/09 11:07:54;;;;;;;40.05;24.23;;;;;;;13.64;100.00;93698.50;5078091;28;20435;-75
2022/11/09 11:10:22;;;;;;;47.67;24.67;;;;;;;13.33;100.00;93687.31;5111763;28;20044;-75
2022/11/09 11:12:57;;;;;;;51.35;24.90;;;;;;;13.35;100.00;93688.66;5113043;28;20047;-75
2022/11/09 11:15:31;;;;;;;41.45;23.27;;;;;;;13.49;100.00;93694.50;5113175;28;20089;-75
2022/11/09 11:18:02;;;;;;;39.70;24.20;;;;;;;13.22;100.00;93694.75;5113117;28;20047;-74
2022/11/09 11:20:31;;;;;;;42.28;24.05;;;;;;;13.19;100.00;93697.75;5113036;28;20131;-75
2022/11/09 11:23:12;;;;;;;39.38;22.50;;;;;;;13.31;100.00;93690.09;5113385;28;20121;-75